sensor_id;sensor_type;location;lat;lon;timestamp;temperature;humidity
63202;DHT22;49296;48.188;11.566;2023-02-16T00:00:52;3.45;77.67
63202;DHT22;49296;48.188;11.566;2023-02-16T00:03:20;3.42;77.62
63202;DHT22;49296;48.188;11.566;2023-02-16T00:05:48;3.34;77.74
63202;DHT22;49296;48.188;11.566;2023-02-16T00:08:14;3.32;77.89
63202;DHT22;49296;48.188;11.566;2023-02-16T00:10:44;3.35;78.08
63202;DHT22;49296;48.188;11.566;2023-02-16T00:13:31;3.42;77.53
63202;DHT22;49296;48.188;11.566;2023-02-16T00:16:13;3.42;77.40
63202;DHT22;49296;48.188;11.566;2023-02-16T00:18:39;3.43;77.25
63202;DHT22;49296;48.188;11.566;2023-02-16T00:21:06;3.45;77.07
63202;DHT22;49296;48.188;11.566;2023-02-16T00:23:33;3.43;77.01
63202;DHT22;49296;48.188;11.566;2023-02-16T00:26:01;3.40;76.95
63202;DHT22;49296;48.188;11.566;2023-02-16T00:28:27;3.34;76.94
63202;DHT22;49296;48.188;11.566;2023-02-16T00:30:54;3.28;77.05
63202;DHT22;49296;48.188;11.566;2023-02-16T00:33:21;3.18;77.39
63202;DHT22;49296;48.188;11.566;2023-02-16T00:35:48;3.14;77.47
63202;DHT22;49296;48.188;11.566;2023-02-16T00:38:14;3.15;77.29
63202;DHT22;49296;48.188;11.566;2023-02-16T00:40:41;3.15;77.14
63202;DHT22;49296;48.188;11.566;2023-02-16T00:43:17;3.22;76.98
63202;DHT22;49296;48.188;11.566;2023-02-16T00:45:47;3.07;76.85
63202;DHT22;49296;48.188;11.566;2023-02-16T00:48:13;2.97;77.01
63202;DHT22;49296;48.188;11.566;2023-02-16T00:50:40;2.84;77.10
63202;DHT22;49296;48.188;11.566;2023-02-16T00:53:06;2.77;77.32
63202;DHT22;49296;48.188;11.566;2023-02-16T00:55:35;2.80;77.15
63202;DHT22;49296;48.188;11.566;2023-02-16T00:58:06;2.86;77.08
63202;DHT22;49296;48.188;11.566;2023-02-16T01:00:37;2.93;76.81
63202;DHT22;49296;48.188;11.566;2023-02-16T01:03:07;2.89;76.48
63202;DHT22;49296;48.188;11.566;2023-02-16T01:05:34;3.03;76.07
63202;DHT22;49296;48.188;11.566;2023-02-16T01:08:01;3.11;75.63
63202;DHT22;49296;48.188;11.566;2023-02-16T01:11:01;3.08;75.26
63202;DHT22;49296;48.188;11.566;2023-02-16T01:13:41;3.05;74.98
63202;DHT22;49296;48.188;11.566;2023-02-16T01:16:14;3.08;74.99
63202;DHT22;49296;48.188;11.566;2023-02-16T01:18:41;3.08;74.98
63202;DHT22;49296;48.188;11.566;2023-02-16T01:21:08;3.10;74.66
63202;DHT22;49296;48.188;11.566;2023-02-16T01:23:35;2.87;74.70
63202;DHT22;49296;48.188;11.566;2023-02-16T01:26:02;2.87;74.99
63202;DHT22;49296;48.188;11.566;2023-02-16T01:28:29;2.89;74.46
63202;DHT22;49296;48.188;11.566;2023-02-16T01:30:56;2.69;75.02
63202;DHT22;49296;48.188;11.566;2023-02-16T01:33:24;2.87;74.16
63202;DHT22;49296;48.188;11.566;2023-02-16T01:35:51;2.76;74.12
63202;DHT22;49296;48.188;11.566;2023-02-16T01:38:20;2.71;74.09
63202;DHT22;49296;48.188;11.566;2023-02-16T01:40:56;2.76;73.46
63202;DHT22;49296;48.188;11.566;2023-02-16T01:43:29;2.56;73.70
63202;DHT22;49296;48.188;11.566;2023-02-16T01:46:00;2.56;73.57
63202;DHT22;49296;48.188;11.566;2023-02-16T01:48:31;2.42;73.57
63202;DHT22;49296;48.188;11.566;2023-02-16T01:51:02;1.94;74.58
63202;DHT22;49296;48.188;11.566;2023-02-16T01:53:32;1.94;74.76
63202;DHT22;49296;48.188;11.566;2023-02-16T01:56:03;2.00;74.67
63202;DHT22;49296;48.188;11.566;2023-02-16T01:58:33;2.06;74.63
63202;DHT22;49296;48.188;11.566;2023-02-16T02:01:35;2.06;74.02
63202;DHT22;49296;48.188;11.566;2023-02-16T02:04:19;2.14;74.19
63202;DHT22;49296;48.188;11.566;2023-02-16T02:07:05;2.13;73.87
63202;DHT22;49296;48.188;11.566;2023-02-16T02:09:38;2.04;74.35
63202;DHT22;49296;48.188;11.566;2023-02-16T02:12:13;2.15;73.97
63202;DHT22;49296;48.188;11.566;2023-02-16T02:14:43;2.15;73.85
63202;DHT22;49296;48.188;11.566;2023-02-16T02:17:14;2.14;74.05
63202;DHT22;49296;48.188;11.566;2023-02-16T02:19:50;2.06;74.22
63202;DHT22;49296;48.188;11.566;2023-02-16T02:26:40;2.11;74.33
63202;DHT22;49296;48.188;11.566;2023-02-16T02:29:29;2.06;74.35
63202;DHT22;49296;48.188;11.566;2023-02-16T02:32:05;1.97;74.30
63202;DHT22;49296;48.188;11.566;2023-02-16T02:34:55;1.96;74.53
63202;DHT22;49296;48.188;11.566;2023-02-16T02:37:30;2.02;74.56
63202;DHT22;49296;48.188;11.566;2023-02-16T02:40:06;2.07;74.52
63202;DHT22;49296;48.188;11.566;2023-02-16T02:42:40;2.09;74.32
63202;DHT22;49296;48.188;11.566;2023-02-16T02:45:13;2.10;74.10
63202;DHT22;49296;48.188;11.566;2023-02-16T02:47:43;2.17;73.82
63202;DHT22;49296;48.188;11.566;2023-02-16T02:50:31;2.14;73.68
63202;DHT22;49296;48.188;11.566;2023-02-16T02:53:03;2.15;73.53
63202;DHT22;49296;48.188;11.566;2023-02-16T02:55:31;2.13;73.60
63202;DHT22;49296;48.188;11.566;2023-02-16T02:58:20;2.13;73.66
63202;DHT22;49296;48.188;11.566;2023-02-16T03:01:06;2.11;73.67
63202;DHT22;49296;48.188;11.566;2023-02-16T03:03:36;2.07;73.71
63202;DHT22;49296;48.188;11.566;2023-02-16T03:06:07;2.07;73.84
63202;DHT22;49296;48.188;11.566;2023-02-16T03:08:39;2.13;73.64
63202;DHT22;49296;48.188;11.566;2023-02-16T03:11:09;2.04;73.62
63202;DHT22;49296;48.188;11.566;2023-02-16T03:13:58;2.00;73.92
63202;DHT22;49296;48.188;11.566;2023-02-16T03:16:30;2.07;73.80
63202;DHT22;49296;48.188;11.566;2023-02-16T03:18:59;2.10;73.50
63202;DHT22;49296;48.188;11.566;2023-02-16T03:21:45;2.06;73.45
63202;DHT22;49296;48.188;11.566;2023-02-16T03:24:30;1.97;73.69
63202;DHT22;49296;48.188;11.566;2023-02-16T03:27:17;1.96;73.60
63202;DHT22;49296;48.188;11.566;2023-02-16T03:30:07;1.94;73.61
63202;DHT22;49296;48.188;11.566;2023-02-16T03:32:34;1.94;73.52
63202;DHT22;49296;48.188;11.566;2023-02-16T03:35:01;1.90;73.52
63202;DHT22;49296;48.188;11.566;2023-02-16T03:37:28;1.89;73.55
63202;DHT22;49296;48.188;11.566;2023-02-16T03:39:54;1.86;73.71
63202;DHT22;49296;48.188;11.566;2023-02-16T03:42:38;1.92;73.57
63202;DHT22;49296;48.188;11.566;2023-02-16T03:45:07;1.82;73.58
63202;DHT22;49296;48.188;11.566;2023-02-16T03:47:34;1.90;73.34
63202;DHT22;49296;48.188;11.566;2023-02-16T03:50:00;1.93;73.18
63202;DHT22;49296;48.188;11.566;2023-02-16T03:52:27;1.92;73.05
63202;DHT22;49296;48.188;11.566;2023-02-16T03:54:53;1.94;72.95
63202;DHT22;49296;48.188;11.566;2023-02-16T03:57:20;1.97;72.82
63202;DHT22;49296;48.188;11.566;2023-02-16T03:59:47;1.85;72.63
63202;DHT22;49296;48.188;11.566;2023-02-16T04:02:16;1.80;72.65
63202;DHT22;49296;48.188;11.566;2023-02-16T04:04:43;1.87;72.44
63202;DHT22;49296;48.188;11.566;2023-02-16T04:07:09;1.93;72.15
63202;DHT22;49296;48.188;11.566;2023-02-16T04:09:36;1.92;72.05
63202;DHT22;49296;48.188;11.566;2023-02-16T04:12:03;1.96;72.05
63202;DHT22;49296;48.188;11.566;2023-02-16T04:14:47;1.90;72.10
63202;DHT22;49296;48.188;11.566;2023-02-16T04:17:15;1.92;71.96
63202;DHT22;49296;48.188;11.566;2023-02-16T04:19:42;1.92;72.08
63202;DHT22;49296;48.188;11.566;2023-02-16T04:22:08;1.90;72.16
63202;DHT22;49296;48.188;11.566;2023-02-16T04:24:35;1.79;72.30
63202;DHT22;49296;48.188;11.566;2023-02-16T04:27:04;1.73;72.60
63202;DHT22;49296;48.188;11.566;2023-02-16T04:29:30;1.66;72.76
63202;DHT22;49296;48.188;11.566;2023-02-16T04:31:57;1.68;72.85
63202;DHT22;49296;48.188;11.566;2023-02-16T04:34:25;1.62;72.98
63202;DHT22;49296;48.188;11.566;2023-02-16T04:36:52;1.66;73.09
63202;DHT22;49296;48.188;11.566;2023-02-16T04:39:18;1.69;73.07
63202;DHT22;49296;48.188;11.566;2023-02-16T04:41:46;1.69;73.07
63202;DHT22;49296;48.188;11.566;2023-02-16T04:44:13;1.65;73.06
63202;DHT22;49296;48.188;11.566;2023-02-16T04:46:39;1.68;73.26
63202;DHT22;49296;48.188;11.566;2023-02-16T04:49:06;1.60;73.22
63202;DHT22;49296;48.188;11.566;2023-02-16T04:51:34;1.51;73.33
63202;DHT22;49296;48.188;11.566;2023-02-16T04:54:00;1.54;73.59
63202;DHT22;49296;48.188;11.566;2023-02-16T04:56:27;1.55;73.55
63202;DHT22;49296;48.188;11.566;2023-02-16T04:58:55;1.44;73.76
63202;DHT22;49296;48.188;11.566;2023-02-16T05:01:23;1.52;73.70
63202;DHT22;49296;48.188;11.566;2023-02-16T05:03:50;1.56;73.92
63202;DHT22;49296;48.188;11.566;2023-02-16T05:06:17;1.66;73.74
63202;DHT22;49296;48.188;11.566;2023-02-16T05:08:45;1.66;73.49
63202;DHT22;49296;48.188;11.566;2023-02-16T05:11:12;1.69;73.26
63202;DHT22;49296;48.188;11.566;2023-02-16T05:13:56;1.70;73.24
63202;DHT22;49296;48.188;11.566;2023-02-16T05:16:40;1.73;73.21
63202;DHT22;49296;48.188;11.566;2023-02-16T05:19:07;1.75;73.02
63202;DHT22;49296;48.188;11.566;2023-02-16T05:21:34;1.72;73.05
63202;DHT22;49296;48.188;11.566;2023-02-16T05:24:03;1.70;72.94
63202;DHT22;49296;48.188;11.566;2023-02-16T05:26:31;1.70;72.80
63202;DHT22;49296;48.188;11.566;2023-02-16T05:28:58;1.75;72.43
63202;DHT22;49296;48.188;11.566;2023-02-16T05:31:25;1.80;72.08
63202;DHT22;49296;48.188;11.566;2023-02-16T05:33:52;1.77;71.86
63202;DHT22;49296;48.188;11.566;2023-02-16T05:36:19;1.77;71.69
63202;DHT22;49296;48.188;11.566;2023-02-16T05:38:46;1.80;71.51
63202;DHT22;49296;48.188;11.566;2023-02-16T05:41:14;1.77;71.53
63202;DHT22;49296;48.188;11.566;2023-02-16T05:43:48;1.48;71.85
63202;DHT22;49296;48.188;11.566;2023-02-16T05:46:14;1.65;71.32
63202;DHT22;49296;48.188;11.566;2023-02-16T05:48:41;1.69;71.13
63202;DHT22;49296;48.188;11.566;2023-02-16T05:51:08;1.73;70.96
63202;DHT22;49296;48.188;11.566;2023-02-16T05:53:34;1.79;70.70
63202;DHT22;49296;48.188;11.566;2023-02-16T05:56:01;1.73;70.41
63202;DHT22;49296;48.188;11.566;2023-02-16T05:58:29;1.66;70.50
63202;DHT22;49296;48.188;11.566;2023-02-16T06:00:56;1.59;70.80
63202;DHT22;49296;48.188;11.566;2023-02-16T06:03:22;1.55;71.00
63202;DHT22;49296;48.188;11.566;2023-02-16T06:05:51;1.62;71.09
63202;DHT22;49296;48.188;11.566;2023-02-16T06:08:18;1.62;71.24
63202;DHT22;49296;48.188;11.566;2023-02-16T06:10:45;1.59;71.36
63202;DHT22;49296;48.188;11.566;2023-02-16T06:13:11;1.60;71.61
63202;DHT22;49296;48.188;11.566;2023-02-16T06:15:40;1.58;72.00
63202;DHT22;49296;48.188;11.566;2023-02-16T06:18:06;1.60;72.13
63202;DHT22;49296;48.188;11.566;2023-02-16T06:20:33;1.56;72.36
63202;DHT22;49296;48.188;11.566;2023-02-16T06:22:59;1.60;72.49
63202;DHT22;49296;48.188;11.566;2023-02-16T06:25:26;1.63;72.69
63202;DHT22;49296;48.188;11.566;2023-02-16T06:27:53;1.68;72.88
63202;DHT22;49296;48.188;11.566;2023-02-16T06:30:21;1.70;72.79
63202;DHT22;49296;48.188;11.566;2023-02-16T06:32:49;1.76;72.93
63202;DHT22;49296;48.188;11.566;2023-02-16T06:35:16;1.76;73.14
63202;DHT22;49296;48.188;11.566;2023-02-16T06:37:43;1.77;73.53
63202;DHT22;49296;48.188;11.566;2023-02-16T06:40:11;1.86;73.21
63202;DHT22;49296;48.188;11.566;2023-02-16T06:42:40;1.82;73.11
63202;DHT22;49296;48.188;11.566;2023-02-16T06:45:07;1.76;73.40
63202;DHT22;49296;48.188;11.566;2023-02-16T06:47:35;1.92;73.01
63202;DHT22;49296;48.188;11.566;2023-02-16T06:50:05;1.68;72.84
63202;DHT22;49296;48.188;11.566;2023-02-16T06:52:34;1.65;72.68
63202;DHT22;49296;48.188;11.566;2023-02-16T06:55:00;1.68;72.64
63202;DHT22;49296;48.188;11.566;2023-02-16T06:57:27;1.69;72.48
63202;DHT22;49296;48.188;11.566;2023-02-16T06:59:54;1.76;72.19
63202;DHT22;49296;48.188;11.566;2023-02-16T07:02:21;1.79;72.55
63202;DHT22;49296;48.188;11.566;2023-02-16T07:04:47;1.72;72.78
63202;DHT22;49296;48.188;11.566;2023-02-16T07:07:15;1.66;72.80
63202;DHT22;49296;48.188;11.566;2023-02-16T07:09:42;1.68;72.67
63202;DHT22;49296;48.188;11.566;2023-02-16T07:12:09;1.70;73.01
63202;DHT22;49296;48.188;11.566;2023-02-16T07:14:35;1.65;72.97
63202;DHT22;49296;48.188;11.566;2023-02-16T07:17:02;1.75;73.02
63202;DHT22;49296;48.188;11.566;2023-02-16T07:19:29;1.89;72.79
63202;DHT22;49296;48.188;11.566;2023-02-16T07:21:57;2.00;72.69
63202;DHT22;49296;48.188;11.566;2023-02-16T07:24:25;2.06;72.65
63202;DHT22;49296;48.188;11.566;2023-02-16T07:26:52;2.20;72.56
63202;DHT22;49296;48.188;11.566;2023-02-16T07:29:18;2.25;72.62
63202;DHT22;49296;48.188;11.566;2023-02-16T07:31:45;2.34;72.95
63202;DHT22;49296;48.188;11.566;2023-02-16T07:34:12;2.42;73.07
63202;DHT22;49296;48.188;11.566;2023-02-16T07:36:38;2.45;73.19
63202;DHT22;49296;48.188;11.566;2023-02-16T07:39:05;2.55;73.19
63202;DHT22;49296;48.188;11.566;2023-02-16T07:41:33;2.62;72.96
63202;DHT22;49296;48.188;11.566;2023-02-16T07:44:00;2.71;73.02
63202;DHT22;49296;48.188;11.566;2023-02-16T07:46:26;2.71;73.49
63202;DHT22;49296;48.188;11.566;2023-02-16T07:48:53;2.72;73.82
63202;DHT22;49296;48.188;11.566;2023-02-16T07:51:21;2.86;73.73
63202;DHT22;49296;48.188;11.566;2023-02-16T07:53:48;2.94;73.75
63202;DHT22;49296;48.188;11.566;2023-02-16T07:56:18;3.01;73.61
63202;DHT22;49296;48.188;11.566;2023-02-16T07:58:46;3.10;73.87
63202;DHT22;49296;48.188;11.566;2023-02-16T08:01:13;3.17;74.10
63202;DHT22;49296;48.188;11.566;2023-02-16T08:03:40;3.29;73.88
63202;DHT22;49296;48.188;11.566;2023-02-16T08:06:07;3.35;74.05
63202;DHT22;49296;48.188;11.566;2023-02-16T08:08:34;3.39;74.57
63202;DHT22;49296;48.188;11.566;2023-02-16T08:11:07;3.51;74.43
63202;DHT22;49296;48.188;11.566;2023-02-16T08:13:34;3.55;74.55
63202;DHT22;49296;48.188;11.566;2023-02-16T08:16:02;3.56;75.07
63202;DHT22;49296;48.188;11.566;2023-02-16T08:18:32;3.67;75.44
63202;DHT22;49296;48.188;11.566;2023-02-16T08:21:06;3.53;76.24
63202;DHT22;49296;48.188;11.566;2023-02-16T08:23:38;3.45;76.54
63202;DHT22;49296;48.188;11.566;2023-02-16T08:26:07;3.36;77.52
63202;DHT22;49296;48.188;11.566;2023-02-16T08:28:34;3.45;77.19
63202;DHT22;49296;48.188;11.566;2023-02-16T08:31:04;3.67;77.87
63202;DHT22;49296;48.188;11.566;2023-02-16T08:33:32;3.86;76.97
63202;DHT22;49296;48.188;11.566;2023-02-16T08:35:59;3.79;76.82
63202;DHT22;49296;48.188;11.566;2023-02-16T08:38:26;3.84;76.78
63202;DHT22;49296;48.188;11.566;2023-02-16T08:40:52;3.98;76.57
63202;DHT22;49296;48.188;11.566;2023-02-16T08:43:20;3.98;76.76
63202;DHT22;49296;48.188;11.566;2023-02-16T08:45:47;3.97;76.78
63202;DHT22;49296;48.188;11.566;2023-02-16T08:48:16;3.91;76.85
63202;DHT22;49296;48.188;11.566;2023-02-16T08:50:43;3.83;77.13
63202;DHT22;49296;48.188;11.566;2023-02-16T08:53:17;4.12;76.44
63202;DHT22;49296;48.188;11.566;2023-02-16T08:55:50;4.15;76.21
63202;DHT22;49296;48.188;11.566;2023-02-16T08:58:17;4.38;75.65
63202;DHT22;49296;48.188;11.566;2023-02-16T09:00:44;4.45;75.42
63202;DHT22;49296;48.188;11.566;2023-02-16T09:03:11;4.49;75.44
63202;DHT22;49296;48.188;11.566;2023-02-16T09:05:39;4.61;75.12
63202;DHT22;49296;48.188;11.566;2023-02-16T09:08:06;4.70;74.88
63202;DHT22;49296;48.188;11.566;2023-02-16T09:10:33;4.80;74.71
63202;DHT22;49296;48.188;11.566;2023-02-16T09:12:59;4.81;75.09
63202;DHT22;49296;48.188;11.566;2023-02-16T09:15:26;4.92;75.21
63202;DHT22;49296;48.188;11.566;2023-02-16T09:17:53;4.97;75.24
63202;DHT22;49296;48.188;11.566;2023-02-16T09:20:19;5.08;74.80
63202;DHT22;49296;48.188;11.566;2023-02-16T09:22:48;5.15;73.12
63202;DHT22;49296;48.188;11.566;2023-02-16T09:25:15;5.25;72.15
63202;DHT22;49296;48.188;11.566;2023-02-16T09:27:42;5.38;71.97
63202;DHT22;49296;48.188;11.566;2023-02-16T09:30:09;5.50;69.94
63202;DHT22;49296;48.188;11.566;2023-02-16T09:32:36;5.64;68.42
63202;DHT22;49296;48.188;11.566;2023-02-16T09:35:02;5.85;68.56
63202;DHT22;49296;48.188;11.566;2023-02-16T09:37:30;6.06;67.85
63202;DHT22;49296;48.188;11.566;2023-02-16T09:39:58;6.09;67.69
63202;DHT22;49296;48.188;11.566;2023-02-16T09:42:31;6.32;67.03
63202;DHT22;49296;48.188;11.566;2023-02-16T09:45:04;6.50;65.38
63202;DHT22;49296;48.188;11.566;2023-02-16T09:47:36;6.58;65.44
63202;DHT22;49296;48.188;11.566;2023-02-16T09:50:12;6.71;65.17
63202;DHT22;49296;48.188;11.566;2023-02-16T09:52:40;6.78;64.98
63202;DHT22;49296;48.188;11.566;2023-02-16T09:55:13;6.91;64.78
63202;DHT22;49296;48.188;11.566;2023-02-16T09:57:57;6.99;64.56
63202;DHT22;49296;48.188;11.566;2023-02-16T10:00:31;7.08;64.95
63202;DHT22;49296;48.188;11.566;2023-02-16T10:03:10;7.16;64.95
63202;DHT22;49296;48.188;11.566;2023-02-16T10:05:44;7.20;65.12
63202;DHT22;49296;48.188;11.566;2023-02-16T10:08:13;7.31;65.33
63202;DHT22;49296;48.188;11.566;2023-02-16T10:10:45;7.42;64.34
63202;DHT22;49296;48.188;11.566;2023-02-16T10:13:21;7.51;64.22
63202;DHT22;49296;48.188;11.566;2023-02-16T10:15:51;7.55;63.55
63202;DHT22;49296;48.188;11.566;2023-02-16T10:18:25;7.64;63.41
63202;DHT22;49296;48.188;11.566;2023-02-16T10:20:57;7.75;63.19
63202;DHT22;49296;48.188;11.566;2023-02-16T10:23:33;7.81;62.73
63202;DHT22;49296;48.188;11.566;2023-02-16T10:26:15;7.88;62.68
63202;DHT22;49296;48.188;11.566;2023-02-16T10:28:45;7.88;62.99
63202;DHT22;49296;48.188;11.566;2023-02-16T10:31:22;8.00;63.38
63202;DHT22;49296;48.188;11.566;2023-02-16T10:34:07;8.03;62.64
63202;DHT22;49296;48.188;11.566;2023-02-16T10:36:53;8.09;62.95
63202;DHT22;49296;48.188;11.566;2023-02-16T10:39:26;8.16;62.13
63202;DHT22;49296;48.188;11.566;2023-02-16T10:42:00;8.22;62.08
63202;DHT22;49296;48.188;11.566;2023-02-16T10:44:37;8.41;61.96
63202;DHT22;49296;48.188;11.566;2023-02-16T10:47:12;8.47;62.09
63202;DHT22;49296;48.188;11.566;2023-02-16T10:49:43;8.64;61.50
63202;DHT22;49296;48.188;11.566;2023-02-16T10:52:12;8.67;61.55
63202;DHT22;49296;48.188;11.566;2023-02-16T10:54:39;8.75;61.31
63202;DHT22;49296;48.188;11.566;2023-02-16T10:57:19;8.79;60.90
63202;DHT22;49296;48.188;11.566;2023-02-16T10:59:48;8.86;59.91
63202;DHT22;49296;48.188;11.566;2023-02-16T11:02:17;8.86;59.36
63202;DHT22;49296;48.188;11.566;2023-02-16T11:04:46;9.03;57.65
63202;DHT22;49296;48.188;11.566;2023-02-16T11:07:14;9.02;57.03
63202;DHT22;49296;48.188;11.566;2023-02-16T11:09:43;9.17;55.98
63202;DHT22;49296;48.188;11.566;2023-02-16T11:12:24;9.14;56.01
63202;DHT22;49296;48.188;11.566;2023-02-16T11:14:53;9.17;55.69
63202;DHT22;49296;48.188;11.566;2023-02-16T11:17:21;9.28;55.60
63202;DHT22;49296;48.188;11.566;2023-02-16T11:19:51;9.35;55.41
63202;DHT22;49296;48.188;11.566;2023-02-16T11:22:27;9.39;55.29
63202;DHT22;49296;48.188;11.566;2023-02-16T11:24:54;9.45;54.52
63202;DHT22;49296;48.188;11.566;2023-02-16T11:27:25;9.42;54.50
63202;DHT22;49296;48.188;11.566;2023-02-16T11:30:13;9.47;54.80
63202;DHT22;49296;48.188;11.566;2023-02-16T11:32:46;9.49;54.68
63202;DHT22;49296;48.188;11.566;2023-02-16T11:35:13;9.59;54.75
63202;DHT22;49296;48.188;11.566;2023-02-16T11:37:43;9.69;54.84
63202;DHT22;49296;48.188;11.566;2023-02-16T11:40:19;9.78;53.60
63202;DHT22;49296;48.188;11.566;2023-02-16T11:42:50;9.86;53.32
63202;DHT22;49296;48.188;11.566;2023-02-16T11:45:24;9.79;54.12
63202;DHT22;49296;48.188;11.566;2023-02-16T11:47:52;9.99;53.41
63202;DHT22;49296;48.188;11.566;2023-02-16T11:50:22;10.14;51.70
63202;DHT22;49296;48.188;11.566;2023-02-16T11:52:52;10.17;51.43
63202;DHT22;49296;48.188;11.566;2023-02-16T11:55:23;10.22;51.49
63202;DHT22;49296;48.188;11.566;2023-02-16T11:57:53;10.30;51.46
63202;DHT22;49296;48.188;11.566;2023-02-16T12:00:22;10.55;50.03
63202;DHT22;49296;48.188;11.566;2023-02-16T12:03:15;10.68;49.79
63202;DHT22;49296;48.188;11.566;2023-02-16T12:05:59;10.76;49.88
63202;DHT22;49296;48.188;11.566;2023-02-16T12:08:39;10.75;49.29
63202;DHT22;49296;48.188;11.566;2023-02-16T12:11:20;10.83;48.30
63202;DHT22;49296;48.188;11.566;2023-02-16T12:13:59;10.93;47.28
63202;DHT22;49296;48.188;11.566;2023-02-16T12:16:34;10.97;47.55
63202;DHT22;49296;48.188;11.566;2023-02-16T12:19:11;11.06;46.68
63202;DHT22;49296;48.188;11.566;2023-02-16T12:21:46;11.10;44.41
63202;DHT22;49296;48.188;11.566;2023-02-16T12:24:26;11.06;45.06
63202;DHT22;49296;48.188;11.566;2023-02-16T12:26:59;11.18;44.29
63202;DHT22;49296;48.188;11.566;2023-02-16T12:29:39;11.21;43.84
63202;DHT22;49296;48.188;11.566;2023-02-16T12:32:19;11.32;44.34
63202;DHT22;49296;48.188;11.566;2023-02-16T12:34:56;11.32;44.23
63202;DHT22;49296;48.188;11.566;2023-02-16T12:37:28;11.32;44.17
63202;DHT22;49296;48.188;11.566;2023-02-16T12:40:10;11.41;44.87
63202;DHT22;49296;48.188;11.566;2023-02-16T12:42:52;11.48;44.73
63202;DHT22;49296;48.188;11.566;2023-02-16T12:45:25;11.52;44.64
63202;DHT22;49296;48.188;11.566;2023-02-16T12:47:55;11.58;44.94
63202;DHT22;49296;48.188;11.566;2023-02-16T12:50:25;11.69;43.65
63202;DHT22;49296;48.188;11.566;2023-02-16T12:52:55;11.75;43.81
63202;DHT22;49296;48.188;11.566;2023-02-16T12:55:26;11.80;43.60
63202;DHT22;49296;48.188;11.566;2023-02-16T12:58:02;11.80;43.61
63202;DHT22;49296;48.188;11.566;2023-02-16T13:00:41;11.84;43.62
63202;DHT22;49296;48.188;11.566;2023-02-16T13:03:23;11.98;43.61
63202;DHT22;49296;48.188;11.566;2023-02-16T13:05:59;12.04;43.12
63202;DHT22;49296;48.188;11.566;2023-02-16T13:08:32;12.04;43.09
63202;DHT22;49296;48.188;11.566;2023-02-16T13:11:08;12.21;42.79
63202;DHT22;49296;48.188;11.566;2023-02-16T13:13:37;12.29;42.14
63202;DHT22;49296;48.188;11.566;2023-02-16T13:16:12;12.34;42.31
63202;DHT22;49296;48.188;11.566;2023-02-16T13:18:42;12.44;41.88
63202;DHT22;49296;48.188;11.566;2023-02-16T13:21:13;12.46;42.21
63202;DHT22;49296;48.188;11.566;2023-02-16T13:23:51;12.52;41.68
63202;DHT22;49296;48.188;11.566;2023-02-16T13:26:40;12.59;41.55
63202;DHT22;49296;48.188;11.566;2023-02-16T13:29:23;12.67;41.57
63202;DHT22;49296;48.188;11.566;2023-02-16T13:32:02;12.77;42.01
63202;DHT22;49296;48.188;11.566;2023-02-16T13:34:51;12.86;42.61
63202;DHT22;49296;48.188;11.566;2023-02-16T13:37:35;13.04;41.95
63202;DHT22;49296;48.188;11.566;2023-02-16T13:40:18;13.07;40.98
63202;DHT22;49296;48.188;11.566;2023-02-16T13:45:40;13.11;40.27
63202;DHT22;49296;48.188;11.566;2023-02-16T13:48:14;13.14;40.57
63202;DHT22;49296;48.188;11.566;2023-02-16T13:50:46;13.19;40.62
63202;DHT22;49296;48.188;11.566;2023-02-16T13:53:20;13.25;40.50
63202;DHT22;49296;48.188;11.566;2023-02-16T13:55:48;13.24;41.08
63202;DHT22;49296;48.188;11.566;2023-02-16T13:58:29;13.14;40.92
63202;DHT22;49296;48.188;11.566;2023-02-16T14:00:56;13.03;40.94
63202;DHT22;49296;48.188;11.566;2023-02-16T14:03:36;13.07;40.91
63202;DHT22;49296;48.188;11.566;2023-02-16T14:06:32;13.04;41.20
63202;DHT22;49296;48.188;11.566;2023-02-16T14:09:29;13.00;41.21
63202;DHT22;49296;48.188;11.566;2023-02-16T14:12:14;13.03;41.10
63202;DHT22;49296;48.188;11.566;2023-02-16T14:14:45;12.96;40.90
63202;DHT22;49296;48.188;11.566;2023-02-16T14:17:23;12.94;41.32
63202;DHT22;49296;48.188;11.566;2023-02-16T14:19:55;12.94;41.34
63202;DHT22;49296;48.188;11.566;2023-02-16T14:22:28;12.91;41.50
63202;DHT22;49296;48.188;11.566;2023-02-16T14:25:00;12.87;41.52
63202;DHT22;49296;48.188;11.566;2023-02-16T14:27:42;12.87;41.71
63202;DHT22;49296;48.188;11.566;2023-02-16T14:30:21;12.86;42.21
63202;DHT22;49296;48.188;11.566;2023-02-16T14:32:53;12.86;43.07
63202;DHT22;49296;48.188;11.566;2023-02-16T14:35:26;12.84;42.41
63202;DHT22;49296;48.188;11.566;2023-02-16T14:37:56;12.86;42.40
63202;DHT22;49296;48.188;11.566;2023-02-16T14:40:42;12.89;41.32
63202;DHT22;49296;48.188;11.566;2023-02-16T14:43:23;12.91;40.92
63202;DHT22;49296;48.188;11.566;2023-02-16T14:46:17;12.82;39.63
63202;DHT22;49296;48.188;11.566;2023-02-16T14:49:17;12.91;39.68
63202;DHT22;49296;48.188;11.566;2023-02-16T14:52:30;12.90;39.63
63202;DHT22;49296;48.188;11.566;2023-02-16T14:55:11;12.97;39.48
63202;DHT22;49296;48.188;11.566;2023-02-16T14:57:44;12.96;39.93
63202;DHT22;49296;48.188;11.566;2023-02-16T15:00:22;12.83;39.78
63202;DHT22;49296;48.188;11.566;2023-02-16T15:02:55;12.94;40.23
63202;DHT22;49296;48.188;11.566;2023-02-16T15:05:25;12.96;40.46
63202;DHT22;49296;48.188;11.566;2023-02-16T15:08:00;12.89;40.99
63202;DHT22;49296;48.188;11.566;2023-02-16T15:10:29;12.87;41.30
63202;DHT22;49296;48.188;11.566;2023-02-16T15:12:57;12.83;41.52
63202;DHT22;49296;48.188;11.566;2023-02-16T15:15:28;12.87;41.51
63202;DHT22;49296;48.188;11.566;2023-02-16T15:17:57;12.87;41.59
63202;DHT22;49296;48.188;11.566;2023-02-16T15:20:27;12.94;41.73
63202;DHT22;49296;48.188;11.566;2023-02-16T15:22:58;12.91;41.88
63202;DHT22;49296;48.188;11.566;2023-02-16T15:25:27;12.77;42.12
63202;DHT22;49296;48.188;11.566;2023-02-16T15:27:55;12.65;41.55
63202;DHT22;49296;48.188;11.566;2023-02-16T15:30:27;12.59;41.84
63202;DHT22;49296;48.188;11.566;2023-02-16T15:32:58;12.50;42.19
63202;DHT22;49296;48.188;11.566;2023-02-16T15:35:28;12.62;42.28
63202;DHT22;49296;48.188;11.566;2023-02-16T15:38:01;12.55;42.14
63202;DHT22;49296;48.188;11.566;2023-02-16T15:40:28;12.56;42.30
63202;DHT22;49296;48.188;11.566;2023-02-16T15:43:05;12.52;42.52
63202;DHT22;49296;48.188;11.566;2023-02-16T15:45:34;12.41;42.14
63202;DHT22;49296;48.188;11.566;2023-02-16T15:48:23;12.38;42.21
63202;DHT22;49296;48.188;11.566;2023-02-16T15:50:53;12.35;42.28
63202;DHT22;49296;48.188;11.566;2023-02-16T15:53:32;12.25;41.98
63202;DHT22;49296;48.188;11.566;2023-02-16T15:56:02;12.28;42.28
63202;DHT22;49296;48.188;11.566;2023-02-16T15:58:30;12.24;42.39
63202;DHT22;49296;48.188;11.566;2023-02-16T16:00:58;12.35;42.48
63202;DHT22;49296;48.188;11.566;2023-02-16T16:03:25;12.24;42.57